Time;durP1;ratioP1;P1;durP2;ratioP2;P2;SDS_P1;SDS_P2;PMS_P1;PMS_P2;Temp;Humidity;BMP_temperature;BMP_pressure;BME280_temperature;BME280_humidity;BME280_pressure;Samples;Min_cycle;Max_cycle;Signal;HPM_P1;HPM_P2
2023/03/18 00:05:53;;;;;;;14.27;8.98;;;;;;;11.68;87.68;99895.34;5437119;23;20062;-94
2023/03/18 00:09:10;;;;;;;12.50;8.95;;;;;;;11.01;86.45;99794.16;5009431;28;20041;-94
2023/03/18 00:12:01;;;;;;;14.75;9.45;;;;;;;11.28;86.59;99849.97;5012892;28;20040;-94
2023/03/18 00:14:52;;;;;;;14.45;9.98;;;;;;;11.59;86.28;99913.53;4996005;28;20045;-93
2023/03/18 00:17:47;;;;;;;19.23;9.82;;;;;;;11.32;85.76;99866.56;4997987;28;20042;-95
2023/03/18 00:21:11;;;;;;;16.50;10.35;;;;;;;11.56;86.00;99908.41;4991154;28;20030;-96
2023/03/18 00:24:21;;;;;;;13.50;8.73;;;;;;;11.13;86.56;99850.88;4999205;28;20045;-94
2023/03/18 00:27:04;;;;;;;13.82;9.48;;;;;;;11.52;86.49;99922.75;4989949;28;20691;-93
2023/03/18 00:29:54;;;;;;;13.43;9.23;;;;;;;11.42;86.03;99902.19;5008830;28;20041;-93
2023/03/18 00:32:50;;;;;;;13.02;8.85;;;;;;;11.38;85.66;99893.56;5001358;28;20100;-95
2023/03/18 00:36:55;;;;;;;14.27;9.93;;;;;;;11.07;85.31;99840.63;5015290;28;20049;-93
2023/03/18 00:39:54;;;;;;;15.23;8.88;;;;;;;11.55;85.77;99935.00;5014495;28;20130;-94
2023/03/18 00:43:28;;;;;;;15.32;9.60;;;;;;;11.24;86.01;99893.50;4947394;28;20136;-94
2023/03/18 00:46:23;;;;;;;17.02;10.38;;;;;;;11.17;86.63;99897.47;5015925;28;20046;-95
2023/03/18 00:49:06;;;;;;;19.05;10.75;;;;;;;10.90;88.17;99862.78;4972765;28;20070;-93
2023/03/18 00:51:54;;;;;;;14.32;9.40;;;;;;;11.32;89.75;99943.44;5019933;28;20073;-94
2023/03/18 00:54:25;;;;;;;16.02;9.95;;;;;;;11.26;91.09;99949.94;4986299;28;20049;-94
2023/03/18 00:57:14;;;;;;;16.65;9.93;;;;;;;11.19;92.77;99930.00;5014307;28;20048;-92
2023/03/18 01:03:46;;;;;;;13.95;9.27;;;;;;;11.01;96.21;99899.28;5034423;28;20088;-93
2023/03/18 01:16:56;;;;;;;;;;;;;;;10.94;100.00;99935.00;5037261;28;20077;-93
2023/03/18 01:19:44;;;;;;;17.35;10.30;;;;;;;10.83;100.00;99927.66;5014119;28;19929;-93
2023/03/18 01:22:25;;;;;;;12.90;9.88;;;;;;;10.88;100.00;99944.13;5019070;28;20141;-91
2023/03/18 01:25:22;;;;;;;15.18;10.50;;;;;;;10.82;100.00;99936.53;4888091;29;20082;-93
2023/03/18 01:28:01;;;;;;;16.13;10.38;;;;;;;10.68;100.00;99913.47;4902061;29;20051;-94
2023/03/18 01:35:25;;;;;;;13.82;10.02;;;;;;;10.89;100.00;99944.03;4912078;29;20100;-93
2023/03/18 01:38:41;;;;;;;15.50;10.18;;;;;;;10.79;100.00;99928.75;4914509;29;20066;-91
2023/03/18 01:45:20;;;;;;;;;;;;;;;10.65;100.00;99940.09;4939441;29;20168;-93
2023/03/18 01:56:08;;;;;;;16.42;10.70;;;;;;;10.15;100.00;99916.31;5029523;28;20060;-94
2023/03/18 01:59:00;;;;;;;16.85;10.98;;;;;;;10.28;100.00;99937.72;4995793;28;20048;-92
2023/03/18 02:02:25;;;;;;;16.40;10.73;;;;;;;10.32;100.00;99934.81;5014035;28;20104;-93
2023/03/18 02:29:17;;;;;;;16.50;11.05;;;;;;;10.08;100.00;99925.47;5025172;28;20033;-94
2023/03/18 02:35:31;;;;;;;16.35;10.75;;;;;;;10.00;100.00;99917.97;5025394;28;20057;-94
2023/03/18 02:38:32;;;;;;;14.90;10.00;;;;;;;9.77;100.00;99865.41;5022592;28;20081;-93
2023/03/18 02:41:36;;;;;;;16.08;11.02;;;;;;;9.86;100.00;99875.50;5026545;28;20053;-93
2023/03/18 02:44:27;;;;;;;15.23;10.20;;;;;;;9.81;100.00;99869.59;5017272;28;20034;-92
2023/03/18 02:47:19;;;;;;;17.25;11.02;;;;;;;9.78;100.00;99885.63;5017085;28;20100;-93
2023/03/18 02:50:08;;;;;;;17.30;11.75;;;;;;;9.86;100.00;99923.13;5011256;28;20018;-95
2023/03/18 02:52:50;;;;;;;15.57;10.52;;;;;;;9.44;100.00;99852.97;5017105;28;20044;-95
2023/03/18 02:56:02;;;;;;;16.95;10.80;;;;;;;10.00;100.00;99938.28;5012840;28;20065;-94
2023/03/18 02:58:49;;;;;;;16.17;11.43;;;;;;;9.71;100.00;99902.75;5005525;28;20077;-93
2023/03/18 03:01:35;;;;;;;17.27;10.80;;;;;;;9.94;100.00;99946.50;4980846;28;20097;-94
2023/03/18 03:04:24;;;;;;;17.40;11.45;;;;;;;9.70;100.00;99909.81;5022079;28;20049;-92
2023/03/18 03:07:06;;;;;;;15.38;11.02;;;;;;;9.76;100.00;99906.00;5010655;28;20046;-91
2023/03/18 03:10:08;;;;;;;19.55;11.82;;;;;;;9.55;100.00;99864.81;4956661;29;20040;-91
2023/03/18 03:12:53;;;;;;;18.10;11.70;;;;;;;9.98;100.00;99940.13;4933249;29;20047;-93
2023/03/18 03:15:41;;;;;;;17.00;11.55;;;;;;;9.80;100.00;99907.56;4913402;29;20111;-92
2023/03/18 03:18:25;;;;;;;16.30;11.00;;;;;;;9.76;100.00;99906.84;4918573;29;20048;-93
2023/03/18 03:21:17;;;;;;;15.15;11.27;;;;;;;9.71;100.00;99908.91;4930496;29;20082;-92
2023/03/18 03:24:10;;;;;;;17.85;11.50;;;;;;;9.74;100.00;99923.75;4941966;29;20036;-94
2023/03/18 03:26:52;;;;;;;18.38;11.50;;;;;;;9.81;100.00;99965.66;4941843;29;20040;-92
2023/03/18 03:29:51;;;;;;;18.65;11.48;;;;;;;9.16;100.00;99876.44;4947414;29;20075;-93
2023/03/18 03:32:38;;;;;;;19.67;12.43;;;;;;;9.26;100.00;99906.78;4933918;29;20108;-94
2023/03/18 03:35:25;;;;;;;16.65;12.10;;;;;;;9.25;100.00;99923.56;4913612;29;20039;-91
2023/03/18 03:38:38;;;;;;;18.88;11.70;;;;;;;9.29;100.00;99943.59;4938906;29;20036;-94
2023/03/18 03:41:29;;;;;;;15.65;11.45;;;;;;;8.97;100.00;99902.88;4979516;28;20047;-93
2023/03/18 03:44:10;;;;;;;20.73;11.18;;;;;;;9.05;100.00;99907.81;5011048;28;20037;-95
2023/03/18 03:46:49;;;;;;;18.45;11.32;;;;;;;9.44;100.00;99985.13;4994453;28;20052;-95
2023/03/18 03:49:51;;;;;;;15.65;10.35;;;;;;;9.49;100.00;99979.63;5009462;28;20049;-94
2023/03/18 03:52:43;;;;;;;;;;;;;;;9.52;100.00;99979.47;4978553;28;20042;-93
2023/03/18 03:55:31;;;;;;;18.80;11.85;;;;;;;9.49;100.00;99988.41;4988000;28;19944;-94
2023/03/18 03:58:39;;;;;;;17.65;11.10;;;;;;;9.17;100.00;99936.28;4990172;28;20061;-93
2023/03/18 04:01:22;;;;;;;18.73;12.18;;;;;;;9.33;100.00;99950.44;4970255;28;20074;-92
2023/03/18 04:04:15;;;;;;;17.77;12.25;;;;;;;9.21;100.00;99919.34;4972087;28;20045;-93
2023/03/18 04:07:09;;;;;;;20.88;12.05;;;;;;;9.44;100.00;99969.25;4986325;28;20041;-91
2023/03/18 04:10:01;;;;;;;15.90;11.93;;;;;;;9.45;100.00;99988.63;4999370;28;20037;-95
2023/03/18 04:16:45;;;;;;;15.73;11.55;;;;;;;9.14;100.00;99926.69;5027039;28;20041;-92
2023/03/18 04:19:55;;;;;;;17.63;12.23;;;;;;;9.23;100.00;99935.97;5033612;28;20100;-94
2023/03/18 04:23:00;;;;;;;16.60;12.00;;;;;;;9.32;100.00;99967.22;5032077;28;20045;-92
2023/03/18 09:09:10;;;;;;;11.90;6.78;;;;;;;13.30;83.34;100087.22;4972051;28;20062;-94
2023/03/18 09:11:56;;;;;;;7.88;6.00;;;;;;;13.36;84.14;100066.53;4969626;28;20437;-94
2023/03/18 09:15:43;;;;;;;10.23;6.20;;;;;;;13.47;83.03;100040.09;4966260;28;20046;-94
2023/03/18 09:18:54;;;;;;;11.18;5.90;;;;;;;13.78;78.36;100054.91;4963041;28;20071;-94
2023/03/18 09:21:58;;;;;;;7.80;4.28;;;;;;;13.91;71.82;100046.00;4952071;28;20054;-95
2023/03/18 09:24:45;;;;;;;7.93;4.45;;;;;;;13.84;69.89;99999.47;4937375;28;20083;-95
2023/03/18 09:27:24;;;;;;;7.07;4.97;;;;;;;14.52;68.44;100070.34;4945523;29;20563;-94
2023/03/18 09:30:13;;;;;;;8.60;4.03;;;;;;;14.47;64.23;100040.53;4955527;28;20193;-93
2023/03/18 09:33:32;;;;;;;6.93;3.88;;;;;;;14.67;65.90;100070.16;4951038;28;20118;-95
2023/03/18 09:36:24;;;;;;;7.47;4.38;;;;;;;14.16;65.86;99978.66;4962885;28;20047;-96
2023/03/18 09:39:13;;;;;;;6.68;3.80;;;;;;;14.82;62.66;100078.91;4943602;28;20047;-94
2023/03/18 09:42:12;;;;;;;6.97;4.07;;;;;;;14.65;64.13;100033.91;4957960;28;20390;-95
2023/03/18 09:45:04;;;;;;;5.95;3.72;;;;;;;14.56;61.46;99992.78;4964428;28;20045;-93
2023/03/18 09:48:21;;;;;;;6.00;3.90;;;;;;;14.93;61.51;100030.19;4974396;28;20059;-93
2023/03/18 09:51:36;;;;;;;5.57;3.90;;;;;;;14.93;60.70;100059.50;4963797;28;20042;-95
2023/03/18 09:54:40;;;;;;;7.55;4.18;;;;;;;15.00;62.66;100079.44;4964055;29;20047;-93
2023/03/18 09:57:33;;;;;;;8.02;4.18;;;;;;;14.96;63.42;100060.13;4961381;28;20042;-93
2023/03/18 10:00:38;;;;;;;7.15;4.13;;;;;;;14.86;62.77;100027.09;4953829;28;20075;-92
2023/03/18 10:04:33;;;;;;;6.53;4.10;;;;;;;15.21;63.09;100079.75;4979617;28;20038;-94
2023/03/18 10:08:01;;;;;;;8.27;3.47;;;;;;;15.21;59.22;100079.75;4971379;28;20047;-95
2023/03/18 10:11:06;;;;;;;7.15;3.85;;;;;;;14.81;59.89;100018.53;4961641;28;20027;-95
2023/03/18 10:14:41;;;;;;;7.78;3.13;;;;;;;14.78;60.93;100025.94;4955067;28;20042;-94
2023/03/18 10:17:54;;;;;;;7.30;3.75;;;;;;;14.85;60.33;99979.19;4973774;28;20070;-94
2023/03/18 10:21:28;;;;;;;5.90;3.80;;;;;;;14.92;59.02;100007.16;4969715;28;20047;-93
2023/03/18 10:25:22;;;;;;;8.45;3.80;;;;;;;15.31;58.84;100060.28;4969887;28;20070;-94
2023/03/18 10:28:36;;;;;;;7.80;3.78;;;;;;;15.59;60.18;100064.50;4971098;28;20031;-93
2023/03/18 10:31:48;;;;;;;9.13;3.80;;;;;;;15.67;58.72;100030.13;4963013;29;20050;-95
2023/03/18 10:35:17;;;;;;;7.30;3.80;;;;;;;15.74;57.54;100010.00;4946753;29;20035;-94
2023/03/18 10:38:35;;;;;;;8.73;3.97;;;;;;;16.05;57.56;100067.34;4940690;28;20066;-94
2023/03/18 10:41:42;;;;;;;9.68;3.63;;;;;;;15.98;57.16;100019.81;4949987;29;20186;-95
2023/03/18 10:44:46;;;;;;;8.77;3.50;;;;;;;15.85;56.29;99985.19;4956272;28;20039;-94
2023/03/18 10:47:48;;;;;;;6.47;3.83;;;;;;;16.37;56.55;100067.53;4969979;28;20040;-94
2023/03/18 10:51:30;;;;;;;4.93;3.10;;;;;;;16.28;56.58;100072.75;4968416;28;20467;-96
2023/03/18 10:54:49;;;;;;;7.38;3.15;;;;;;;16.59;56.59;100069.44;4980049;28;20066;-91
2023/03/18 10:57:34;;;;;;;5.82;3.08;;;;;;;16.53;54.68;100058.38;4901426;29;20053;-88
2023/03/18 11:00:31;;;;;;;8.00;3.03;;;;;;;16.17;55.48;100029.97;4913779;29;20029;-88
2023/03/18 11:03:56;;;;;;;5.38;3.08;;;;;;;16.38;55.76;100057.72;4912903;29;20039;-89
2023/03/18 11:06:40;;;;;;;7.68;3.03;;;;;;;16.35;55.37;100031.25;4913750;29;20054;-88
2023/03/18 11:09:45;;;;;;;5.65;2.90;;;;;;;16.59;55.81;100052.56;4927437;29;20111;-93
2023/03/18 11:12:35;;;;;;;5.00;3.03;;;;;;;16.59;55.32;100034.69;4935000;29;20036;-91
2023/03/18 11:15:25;;;;;;;5.20;3.40;;;;;;;16.69;53.63;99990.25;4900609;29;20052;-92
2023/03/18 11:18:01;;;;;;;6.15;2.75;;;;;;;17.06;52.20;100006.06;5044448;23;20072;-90
2023/03/18 11:20:43;;;;;;;6.00;2.90;;;;;;;17.17;50.46;99982.81;4925579;29;20048;-94
2023/03/18 11:26:20;;;;;;;5.15;2.72;;;;;;;17.96;49.44;100044.22;4941142;29;20103;-92
2023/03/18 11:29:12;;;;;;;5.57;2.85;;;;;;;17.75;49.62;99999.50;4962559;28;20047;-91
2023/03/18 11:32:02;;;;;;;6.13;2.45;;;;;;;17.97;49.97;100016.47;4947175;29;20111;-93
2023/03/18 11:34:39;;;;;;;3.70;2.25;;;;;;;17.60;50.54;99987.38;4934026;29;20047;-92
2023/03/18 11:37:11;;;;;;;5.10;2.72;;;;;;;17.77;51.50;100035.06;4921716;29;20059;-90
2023/03/18 11:39:45;;;;;;;6.45;2.50;;;;;;;17.54;51.36;100004.78;4936620;28;20045;-91
2023/03/18 11:42:31;;;;;;;5.13;2.72;;;;;;;17.64;50.67;100018.28;4919085;28;20096;-91
2023/03/18 11:45:22;;;;;;;4.70;2.40;;;;;;;17.30;50.24;100049.59;4968454;28;20039;-90
2023/03/18 11:47:53;;;;;;;5.53;2.17;;;;;;;16.99;50.81;100051.19;4948482;29;20068;-92
2023/03/18 11:50:26;;;;;;;5.78;2.50;;;;;;;16.73;52.76;100012.25;4951341;28;20107;-91
2023/03/18 11:53:16;;;;;;;6.88;2.50;;;;;;;16.70;52.62;99989.28;4943166;29;20187;-91
2023/03/18 11:56:17;;;;;;;5.15;1.92;;;;;;;17.36;51.55;100040.22;4943469;29;20070;-89
2023/03/18 11:58:56;;;;;;;4.50;2.30;;;;;;;17.52;49.82;100014.75;4944759;28;20040;-91
2023/03/18 12:02:03;;;;;;;4.75;2.08;;;;;;;17.86;49.80;100036.13;4949734;29;20051;-90
2023/03/18 12:05:01;;;;;;;6.65;1.90;;;;;;;17.73;50.61;100044.31;4935481;29;20075;-91
2023/03/18 12:08:09;;;;;;;5.05;1.83;;;;;;;17.44;51.33;100044.00;4935267;29;20090;-90
2023/03/18 12:10:56;;;;;;;;;;;;;;;17.55;51.14;100037.75;4930876;29;20183;-92
2023/03/18 12:13:57;;;;;;;6.63;2.30;;;;;;;17.81;50.85;100038.31;4951747;28;19911;-89
2023/03/18 12:16:52;;;;;;;5.05;2.00;;;;;;;17.90;50.98;100028.69;4947380;29;20087;-91
2023/03/18 12:20:06;;;;;;;7.68;2.03;;;;;;;18.08;50.93;100027.16;4925141;29;20102;-93
2023/03/18 12:23:34;;;;;;;7.72;2.65;;;;;;;17.96;49.85;100007.56;4849769;29;20046;-89
2023/03/18 12:26:28;;;;;;;9.30;2.90;;;;;;;18.04;49.74;100017.66;4942138;29;20052;-92
2023/03/18 12:29:46;;;;;;;4.90;1.90;;;;;;;17.92;50.22;100013.34;4941831;28;20512;-88
2023/03/18 12:32:42;;;;;;;4.72;1.83;;;;;;;17.51;49.73;100017.56;4952042;28;20042;-89
2023/03/18 12:36:11;;;;;;;6.40;2.13;;;;;;;17.04;50.99;99990.13;4948252;29;20186;-95
2023/03/18 12:39:39;;;;;;;5.10;1.65;;;;;;;17.75;50.43;100015.59;4930910;29;20055;-92
2023/03/18 12:42:43;;;;;;;5.07;2.15;;;;;;;18.36;49.96;100009.56;4940728;29;20095;-93
2023/03/18 12:45:51;;;;;;;6.15;2.55;;;;;;;17.98;49.25;99957.41;4926906;29;20054;-93
2023/03/18 12:49:02;;;;;;;8.10;2.58;;;;;;;18.02;50.18;100000.84;4930531;29;20054;-93
2023/03/18 12:52:22;;;;;;;9.73;5.35;;;;;;;18.14;50.83;99989.94;4936222;29;20051;-92
2023/03/18 12:56:07;;;;;;;6.20;2.92;;;;;;;18.31;50.21;99999.25;4959554;28;20039;-92
2023/03/18 12:59:57;;;;;;;6.13;2.67;;;;;;;17.98;50.41;99953.88;4949547;28;20040;-90
2023/03/18 13:03:10;;;;;;;;;;;;;;;17.84;49.84;99996.06;5150265;23;20033;-90
2023/03/18 13:06:25;;;;;;;;;;;;;;;17.52;50.99;99997.84;4960434;28;19934;-90
2023/03/18 13:09:58;;;;;;;4.72;2.05;;;;;;;17.45;52.16;99997.50;4950597;29;19945;-92
2023/03/18 13:13:05;;;;;;;4.38;2.00;;;;;;;17.47;51.44;99981.31;4941646;29;20052;-93
2023/03/18 13:16:16;;;;;;;3.85;1.65;;;;;;;17.50;50.64;99983.72;4943246;29;20044;-93
2023/03/18 13:19:44;;;;;;;6.10;1.80;;;;;;;17.77;51.68;99983.31;4945543;28;20149;-92
2023/03/18 13:23:05;;;;;;;5.28;2.10;;;;;;;17.55;50.72;99911.91;4959327;29;20072;-92
2023/03/18 13:26:31;;;;;;;6.00;1.77;;;;;;;18.11;50.00;99979.50;4957994;28;20112;-91
2023/03/18 13:29:42;;;;;;;5.85;1.90;;;;;;;18.09;50.69;99981.47;4977888;28;20031;-88
2023/03/18 13:33:24;;;;;;;4.07;1.90;;;;;;;18.09;50.64;99986.84;4980572;28;20066;-90
2023/03/18 13:39:35;;;;;;;6.63;1.95;;;;;;;17.39;50.66;99898.13;5224702;23;20062;-91
2023/03/18 13:42:50;;;;;;;6.82;1.83;;;;;;;17.83;50.58;99938.09;4953240;28;20053;-92
2023/03/18 13:45:43;;;;;;;4.90;1.65;;;;;;;18.00;49.45;99976.88;4988268;28;20141;-94
2023/03/18 13:48:52;;;;;;;;;;;;;;;18.04;49.88;99977.47;4982771;28;20403;-91
2023/03/18 13:51:50;;;;;;;5.65;1.85;;;;;;;18.20;48.90;99968.00;5000876;28;20681;-92
2023/03/18 13:54:43;;;;;;;2.97;1.45;;;;;;;17.89;48.61;99883.19;4982917;28;20120;-92
2023/03/18 13:58:08;;;;;;;6.43;1.55;;;;;;;18.50;49.45;99967.19;4992316;28;20053;-93
2023/03/18 14:01:27;;;;;;;3.33;1.75;;;;;;;18.55;49.21;99956.06;4970611;28;20057;-94
2023/03/18 14:04:48;;;;;;;3.38;2.03;;;;;;;18.50;49.41;99963.66;4986254;28;20053;-92
2023/03/18 14:07:25;;;;;;;4.18;2.17;;;;;;;17.85;48.89;99885.25;4985911;28;20028;-92
2023/03/18 14:10:30;;;;;;;4.40;1.85;;;;;;;17.99;49.29;99932.31;4987564;28;20042;-93
2023/03/18 14:13:36;;;;;;;4.32;2.17;;;;;;;18.16;48.55;99936.22;4979250;28;21701;-92
2023/03/18 14:16:52;;;;;;;5.53;2.60;;;;;;;18.15;48.34;99918.44;4972832;28;20070;-93
2023/03/18 14:19:33;;;;;;;6.70;1.80;;;;;;;18.49;48.27;99962.81;4988617;28;20103;-92
2023/03/18 14:22:35;;;;;;;3.92;2.00;;;;;;;18.27;48.47;99952.22;4987262;28;20047;-90
2023/03/18 14:25:16;;;;;;;6.70;2.38;;;;;;;18.08;49.04;99957.50;5340481;23;20047;-91
2023/03/18 14:27:53;;;;;;;7.15;1.95;;;;;;;17.56;49.13;99865.44;4964241;28;20055;-90
2023/03/18 14:33:25;;;;;;;5.30;2.20;;;;;;;18.35;49.20;99952.44;5566019;23;20433;-93
2023/03/18 14:39:17;;;;;;;5.75;2.28;;;;;;;18.16;49.03;99934.41;5117540;23;20067;-91
2023/03/18 14:41:55;;;;;;;4.90;2.38;;;;;;;18.33;48.60;99958.91;4970803;28;20059;-90
2023/03/18 14:44:47;;;;;;;6.57;2.00;;;;;;;18.18;48.91;99953.88;4959133;28;20106;-91
2023/03/18 14:47:41;;;;;;;5.53;1.83;;;;;;;17.99;49.50;99953.75;4952353;28;20197;-91
2023/03/18 14:50:29;;;;;;;7.65;4.00;;;;;;;17.84;50.10;99961.25;4969744;28;20043;-92
2023/03/18 14:53:19;;;;;;;8.10;2.80;;;;;;;17.84;50.67;99944.31;4953284;28;20047;-92
2023/03/18 14:55:50;;;;;;;4.68;2.03;;;;;;;17.72;49.94;99919.44;4967977;28;20047;-90
2023/03/18 14:58:23;;;;;;;4.78;2.13;;;;;;;17.85;50.43;99946.88;4966708;28;20046;-91
2023/03/18 15:01:05;;;;;;;4.85;1.95;;;;;;;17.59;49.92;99899.13;4968458;28;20079;-88
2023/03/18 15:03:39;;;;;;;3.97;2.13;;;;;;;17.92;49.90;99936.50;4954044;28;20031;-89
2023/03/18 15:06:20;;;;;;;4.40;2.10;;;;;;;17.90;50.08;99935.78;4948869;28;20027;-87
2023/03/18 15:08:55;;;;;;;5.88;2.40;;;;;;;17.74;50.72;99932.69;4968862;28;20039;-90
2023/03/18 15:11:23;;;;;;;6.65;2.63;;;;;;;17.75;51.07;99951.31;4966422;28;20048;-88
2023/03/18 15:14:02;;;;;;;5.43;2.17;;;;;;;17.76;51.00;99938.78;4967500;28;20039;-88
2023/03/18 15:16:31;;;;;;;6.47;1.90;;;;;;;17.63;50.72;99922.00;4965320;28;20067;-87
2023/03/18 15:18:59;;;;;;;6.10;2.47;;;;;;;17.61;51.49;99930.16;4952677;28;20047;-90
2023/03/18 15:21:38;;;;;;;6.45;2.28;;;;;;;17.50;51.76;99919.47;4935707;28;20047;-88
2023/03/18 15:24:23;;;;;;;6.15;2.47;;;;;;;17.43;51.89;99919.16;4966334;28;20078;-89
2023/03/18 15:27:02;;;;;;;6.05;2.25;;;;;;;17.40;52.24;99926.59;4959300;28;20085;-87
2023/03/18 15:29:49;;;;;;;3.55;2.15;;;;;;;17.12;52.34;99899.41;4954408;29;20047;-87
2023/03/18 15:32:29;;;;;;;6.93;2.20;;;;;;;17.12;53.02;99915.47;4969798;28;20039;-87
2023/03/18 15:35:18;;;;;;;4.63;2.33;;;;;;;17.16;52.83;99932.09;4964562;28;20088;-87
2023/03/18 15:38:00;;;;;;;6.70;2.10;;;;;;;17.16;53.43;99937.44;4963484;28;20058;-87
2023/03/18 15:40:31;;;;;;;5.25;2.45;;;;;;;17.01;53.35;99910.13;4933960;29;20044;-86
2023/03/18 15:43:07;;;;;;;5.10;2.70;;;;;;;16.98;53.11;99907.72;4934309;28;20066;-88
2023/03/18 15:45:40;;;;;;;4.97;2.53;;;;;;;17.10;53.61;99935.28;4951350;28;20039;-86
2023/03/18 15:48:35;;;;;;;6.00;2.60;;;;;;;17.06;53.27;99934.69;4934236;28;20117;-87
2023/03/18 15:51:06;;;;;;;5.80;2.47;;;;;;;17.06;53.39;99936.50;4947224;28;20112;-87
2023/03/18 15:53:46;;;;;;;3.60;2.47;;;;;;;17.01;54.12;99934.19;4946761;28;20044;-87
2023/03/18 15:56:18;;;;;;;5.55;2.53;;;;;;;16.94;54.23;99932.16;4933005;28;20036;-85
2023/03/18 15:58:55;;;;;;;7.25;3.10;;;;;;;16.88;54.05;99927.28;4933705;29;20032;-90
2023/03/18 16:01:24;;;;;;;5.32;2.72;;;;;;;16.74;54.35;99923.06;4937547;28;20067;-88
2023/03/18 16:03:51;;;;;;;4.15;2.40;;;;;;;16.72;53.92;99933.00;4938576;28;20027;-85
2023/03/18 16:06:25;;;;;;;7.85;2.30;;;;;;;16.62;53.82;99918.66;4963223;28;20036;-85
2023/03/18 16:08:52;;;;;;;4.50;2.35;;;;;;;16.59;54.19;99911.72;4951956;28;20058;-86
2023/03/18 16:11:21;;;;;;;6.47;2.70;;;;;;;16.53;54.32;99898.84;4937498;28;20048;-87
2023/03/18 16:13:51;;;;;;;4.85;2.35;;;;;;;16.61;54.57;99904.44;4938824;28;20138;-87
2023/03/18 16:16:28;;;;;;;6.93;2.72;;;;;;;16.68;53.05;99919.06;4938097;29;20107;-88
2023/03/18 16:18:58;;;;;;;5.57;2.78;;;;;;;16.67;52.99;99922.72;4949503;28;20038;-86
2023/03/18 16:21:26;;;;;;;5.10;2.30;;;;;;;16.64;52.93;99916.75;4936333;29;20063;-91
2023/03/18 16:24:16;;;;;;;4.13;2.03;;;;;;;16.64;53.56;99930.13;4951367;28;20074;-90
2023/03/18 16:26:45;;;;;;;3.65;2.10;;;;;;;16.67;53.44;99925.38;4950816;28;20069;-93
2023/03/18 16:29:32;;;;;;;5.75;2.70;;;;;;;16.70;53.55;99927.78;4937748;28;20336;-91
2023/03/18 16:32:02;;;;;;;7.22;2.58;;;;;;;16.71;53.14;99915.28;4950888;28;20060;-91
2023/03/18 16:34:33;;;;;;;8.98;2.70;;;;;;;16.72;52.80;99925.00;4946830;28;20105;-91
2023/03/18 16:37:04;;;;;;;6.30;2.17;;;;;;;16.49;52.76;99886.72;4953083;28;20058;-91
2023/03/18 16:39:41;;;;;;;3.03;1.83;;;;;;;16.40;53.45;99876.72;4943145;28;20069;-90
2023/03/18 16:42:11;;;;;;;3.75;2.30;;;;;;;16.34;52.94;99859.38;4954667;28;20043;-92
2023/03/18 16:44:42;;;;;;;4.85;2.20;;;;;;;16.30;53.27;99825.00;4943241;28;20055;-91
2023/03/18 16:47:32;;;;;;;6.32;2.55;;;;;;;16.78;54.29;99905.81;4973888;28;20728;-93
2023/03/18 16:50:02;;;;;;;5.60;2.53;;;;;;;16.83;55.56;99919.66;4961932;28;20045;-93
2023/03/18 16:52:32;;;;;;;8.35;2.67;;;;;;;16.84;58.04;99924.03;4969146;28;20103;-93
2023/03/18 16:55:04;;;;;;;6.60;2.78;;;;;;;16.76;58.55;99913.94;4968248;28;20071;-91
2023/03/18 16:57:33;;;;;;;8.50;3.03;;;;;;;16.78;58.00;99940.56;4959035;28;20035;-91
2023/03/18 17:00:31;;;;;;;6.70;2.65;;;;;;;16.71;58.11;99939.34;4974895;28;20103;-92
2023/03/18 17:03:20;;;;;;;6.05;3.00;;;;;;;16.30;58.83;99892.66;4966559;28;20031;-90
2023/03/18 17:06:08;;;;;;;7.70;3.30;;;;;;;16.17;59.04;99870.56;4937763;28;20042;-91
2023/03/18 17:09:28;;;;;;;8.50;3.50;;;;;;;16.23;59.42;99888.75;4956222;28;20099;-93
2023/03/18 17:12:07;;;;;;;5.95;2.80;;;;;;;15.93;59.58;99849.25;5207584;23;20091;-91
2023/03/18 17:15:41;;;;;;;5.10;2.47;;;;;;;15.96;58.78;99874.88;4968829;28;20073;-91
2023/03/18 17:18:26;;;;;;;3.45;2.15;;;;;;;15.93;59.51;99875.09;5207217;23;20100;-90
2023/03/18 17:21:08;;;;;;;4.30;2.05;;;;;;;15.93;59.64;99893.81;5063669;23;20038;-89
2023/03/18 17:23:47;;;;;;;4.40;1.92;;;;;;;16.23;59.81;99960.88;5043743;23;20070;-89
2023/03/18 17:26:41;;;;;;;4.00;2.10;;;;;;;15.80;60.76;99907.25;4970539;28;20081;-91
2023/03/18 17:29:39;;;;;;;5.13;2.05;;;;;;;15.77;61.62;99921.69;5091398;23;20092;-93
2023/03/18 17:32:24;;;;;;;8.02;2.50;;;;;;;15.85;62.11;99963.81;4988474;28;20140;-88
2023/03/18 17:34:56;;;;;;;5.22;2.45;;;;;;;15.72;62.95;99960.38;4988709;28;20035;-91
2023/03/18 17:37:31;;;;;;;7.07;2.38;;;;;;;15.56;63.02;99952.66;4984559;28;20086;-91
2023/03/18 17:40:14;;;;;;;4.00;2.10;;;;;;;15.49;63.51;99959.38;4989421;28;20050;-92
2023/03/18 17:43:02;;;;;;;3.40;2.28;;;;;;;15.45;64.62;99961.41;5003594;28;20035;-91
2023/03/18 17:45:49;;;;;;;6.43;3.25;;;;;;;15.33;65.41;99959.66;4993593;28;20411;-91
2023/03/18 17:48:24;;;;;;;7.82;3.13;;;;;;;15.28;66.10;99966.28;4991603;28;20035;-91
2023/03/18 17:51:15;;;;;;;6.07;2.70;;;;;;;15.11;66.75;99951.50;4994794;28;20465;-91
2023/03/18 17:54:10;;;;;;;;;;;;;;;15.11;67.28;99967.50;4990795;28;20041;-88
2023/03/18 17:57:00;;;;;;;3.55;2.20;;;;;;;14.99;68.24;99974.59;4994719;28;19925;-90
2023/03/18 17:59:44;;;;;;;5.78;2.47;;;;;;;14.88;69.39;99971.00;4992587;28;20094;-90
2023/03/18 18:02:20;;;;;;;4.30;2.50;;;;;;;14.75;70.55;99960.34;4996512;28;20066;-90
2023/03/18 18:04:51;;;;;;;5.28;2.53;;;;;;;14.39;71.88;99919.31;4976693;28;20054;-91
2023/03/18 18:07:24;;;;;;;2.92;2.15;;;;;;;14.61;72.57;99966.66;4993967;28;20039;-88
2023/03/18 18:09:58;;;;;;;6.38;2.88;;;;;;;14.39;73.83;99953.94;4987206;28;20110;-89
2023/03/18 18:12:27;;;;;;;6.38;3.10;;;;;;;14.36;75.20;99963.97;4986799;28;20046;-90
2023/03/18 18:14:55;;;;;;;7.57;2.90;;;;;;;14.32;75.70;99973.16;4989118;28;20073;-90
2023/03/18 18:17:34;;;;;;;6.43;3.10;;;;;;;14.22;77.00;99967.59;4975846;28;20037;-88
2023/03/18 18:20:06;;;;;;;6.03;3.25;;;;;;;14.12;78.20;99958.53;4992779;28;20043;-87
2023/03/18 18:22:43;;;;;;;6.07;2.90;;;;;;;13.83;79.30;99922.41;4977046;28;20049;-90
2023/03/18 18:25:34;;;;;;;6.85;3.28;;;;;;;13.87;80.66;99939.84;4991743;28;20069;-90
2023/03/18 18:28:20;;;;;;;6.18;3.17;;;;;;;13.95;81.72;99978.31;4994730;28;20121;-88
2023/03/18 18:30:53;;;;;;;8.88;2.85;;;;;;;13.58;83.09;99921.38;4986223;28;20046;-90
2023/03/18 18:33:20;;;;;;;8.00;3.70;;;;;;;13.82;84.33;99979.25;4979780;28;20378;-89
2023/03/18 18:35:50;;;;;;;8.52;3.42;;;;;;;13.53;85.34;99936.81;4977567;28;20047;-92
2023/03/18 18:38:19;;;;;;;8.02;3.63;;;;;;;13.62;86.41;99965.44;4980164;28;20071;-89
2023/03/18 18:40:52;;;;;;;6.60;3.63;;;;;;;13.58;87.15;99971.91;4971285;28;20051;-89
2023/03/18 18:43:21;;;;;;;6.43;3.33;;;;;;;13.41;87.69;99942.91;4973538;28;20038;-90
2023/03/18 18:45:52;;;;;;;7.93;3.40;;;;;;;13.40;89.05;99937.69;5001701;28;20477;-90
2023/03/18 18:48:36;;;;;;;7.57;3.92;;;;;;;13.56;90.31;99980.94;4980450;28;20073;-88
2023/03/18 18:51:20;;;;;;;5.57;3.70;;;;;;;13.51;90.93;99985.75;4980155;28;20424;-90
2023/03/18 18:53:52;;;;;;;6.55;3.78;;;;;;;13.20;91.81;99934.56;4981808;28;20569;-91
2023/03/18 18:56:42;;;;;;;7.00;3.78;;;;;;;13.44;92.45;99977.28;4977244;28;20419;-91
2023/03/18 18:59:21;;;;;;;7.85;3.15;;;;;;;13.11;92.96;99918.28;4974771;28;20752;-88
2023/03/18 19:01:55;;;;;;;9.02;4.45;;;;;;;13.41;94.62;99984.59;4983202;28;20047;-91
2023/03/18 19:04:26;;;;;;;6.32;3.83;;;;;;;13.22;95.65;99947.75;4983236;28;20047;-91
2023/03/18 19:06:54;;;;;;;7.50;3.92;;;;;;;12.84;95.86;99881.94;4979535;28;20055;-92
2023/03/18 19:09:40;;;;;;;10.50;4.03;;;;;;;13.37;96.91;99976.00;4980400;28;20262;-93
2023/03/18 19:12:34;;;;;;;5.88;3.30;;;;;;;13.34;96.88;99974.38;4961100;28;20138;-89
2023/03/18 19:15:03;;;;;;;7.30;3.55;;;;;;;13.21;97.12;99951.34;4990884;28;20046;-90
2023/03/18 19:17:31;;;;;;;6.38;3.47;;;;;;;13.28;97.57;99966.81;4963043;28;20050;-93
2023/03/18 19:20:03;;;;;;;6.93;3.30;;;;;;;13.23;97.70;99955.59;4971474;28;20057;-90
2023/03/18 19:22:46;;;;;;;8.48;3.75;;;;;;;13.30;97.95;99972.03;4975778;28;20039;-91
2023/03/18 19:25:14;;;;;;;10.50;4.38;;;;;;;13.28;97.34;99979.25;4982469;28;20099;-93
2023/03/18 19:27:41;;;;;;;11.25;5.93;;;;;;;13.25;96.63;99976.78;4983726;28;20039;-91